Time;durP1;ratioP1;P1;durP2;ratioP2;P2;SDS_P1;SDS_P2;PMS_P1;PMS_P2;Temp;Humidity;BMP_temperature;BMP_pressure;BME280_temperature;BME280_humidity;BME280_pressure;Samples;Min_cycle;Max_cycle;Signal;HPM_P1;HPM_P2
2021/12/02 00:01:38;;;;;;;50.07;46.57;;;6.70;99.90;;;;;;5082352;28;20219;-68
2021/12/02 00:04:28;;;;;;;50.07;46.67;;;6.70;99.90;;;;;;5076380;28;20892;-69
2021/12/02 00:07:17;;;;;;;49.50;46.13;;;6.70;99.90;;;;;;5095812;28;20230;-68
2021/12/02 00:10:08;;;;;;;49.07;45.67;;;6.70;99.90;;;;;;5081104;28;20301;-69
2021/12/02 00:12:57;;;;;;;50.83;47.33;;;6.70;99.90;;;;;;5082632;28;20223;-68
2021/12/02 00:15:51;;;;;;;50.10;46.70;;;6.70;99.90;;;;;;5081362;28;22211;-67
2021/12/02 00:21:50;;;;;;;50.00;46.80;;;6.80;99.90;;;;;;5083088;28;20774;-68
2021/12/02 00:24:40;;;;;;;49.57;46.17;;;6.80;99.90;;;;;;5080737;28;20219;-69
2021/12/02 00:27:31;;;;;;;49.93;46.53;;;6.80;99.90;;;;;;5077982;28;20222;-68
2021/12/02 00:30:20;;;;;;;47.20;44.00;;;6.80;99.90;;;;;;5082978;28;20699;-69
2021/12/02 00:33:10;;;;;;;46.73;43.63;;;6.80;99.90;;;;;;5085291;28;20237;-68
2021/12/02 00:36:00;;;;;;;49.00;45.63;;;6.80;99.90;;;;;;5083642;28;20253;-69
2021/12/02 00:38:48;;;;;;;47.80;44.77;;;6.80;99.90;;;;;;5081023;28;20223;-68
2021/12/02 00:41:38;;;;;;;48.33;45.13;;;6.80;99.90;;;;;;5083344;28;20678;-68
2021/12/02 00:44:31;;;;;;;48.67;45.47;;;6.80;99.90;;;;;;5092880;27;20220;-68
2021/12/02 00:47:20;;;;;;;46.57;43.53;;;6.80;99.90;;;;;;5080850;28;20219;-68
2021/12/02 00:50:10;;;;;;;46.77;43.67;;;6.80;99.90;;;;;;5083528;28;20234;-67
2021/12/02 00:52:59;;;;;;;46.00;42.90;;;6.80;99.90;;;;;;5082876;28;20219;-69
2021/12/02 00:55:49;;;;;;;47.33;44.23;;;6.90;99.90;;;;;;5081185;28;20220;-69
2021/12/02 00:58:38;;;;;;;47.90;44.53;;;6.90;99.90;;;;;;5084218;28;20220;-68
2021/12/02 01:01:34;;;;;;;45.60;42.80;;;7.00;99.90;;;;;;5080215;28;21603;-69
2021/12/02 01:04:24;;;;;;;46.03;43.13;;;7.00;99.90;;;;;;5083578;28;20227;-67
2021/12/02 01:07:13;;;;;;;46.13;43.33;;;7.00;99.90;;;;;;5078432;28;20243;-69
2021/12/02 01:10:01;;;;;;;47.30;44.40;;;7.00;99.90;;;;;;5084981;28;20715;-67
2021/12/02 01:12:50;;;;;;;45.60;42.80;;;7.00;99.90;;;;;;5084628;28;20228;-69
2021/12/02 01:15:40;;;;;;;45.87;43.07;;;7.10;99.90;;;;;;5081001;28;20211;-67
2021/12/02 01:18:30;;;;;;;45.80;43.00;;;7.10;99.90;;;;;;5084985;28;20234;-68
2021/12/02 01:21:23;;;;;;;45.13;42.33;;;7.10;99.90;;;;;;5091041;27;20224;-68
2021/12/02 01:24:13;;;;;;;45.60;42.70;;;7.10;99.90;;;;;;5091050;28;20243;-68
2021/12/02 01:27:07;;;;;;;46.57;43.77;;;7.10;99.90;;;;;;5078280;28;20252;-69
2021/12/02 01:29:56;;;;;;;44.90;42.20;;;7.10;99.90;;;;;;5076919;28;20219;-70
2021/12/02 01:32:47;;;;;;;46.37;43.57;;;7.10;99.90;;;;;;5081846;28;20216;-67
2021/12/02 01:35:38;;;;;;;45.60;42.80;;;7.20;99.90;;;;;;5075903;28;20219;-68
2021/12/02 01:38:28;;;;;;;45.27;42.47;;;7.20;99.90;;;;;;5078690;28;20219;-68
2021/12/02 01:41:17;;;;;;;45.97;43.27;;;7.20;99.90;;;;;;5092358;27;20227;-68
2021/12/02 01:44:11;;;;;;;43.67;40.97;;;7.20;99.90;;;;;;5080414;28;20219;-68
2021/12/02 01:47:01;;;;;;;43.90;41.00;;;7.30;99.90;;;;;;5082108;28;20223;-68
2021/12/02 01:49:54;;;;;;;43.43;40.73;;;7.30;99.90;;;;;;5080249;28;20216;-66
2021/12/02 01:52:46;;;;;;;45.30;42.60;;;7.30;99.90;;;;;;5082737;28;20227;-67
2021/12/02 01:55:36;;;;;;;46.17;43.40;;;7.30;99.90;;;;;;5080281;28;20226;-68
2021/12/02 01:58:27;;;;;;;45.70;42.90;;;7.30;99.90;;;;;;5081008;28;20218;-68
2021/12/02 02:01:20;;;;;;;43.63;40.93;;;7.20;99.90;;;;;;5077084;28;20219;-67
2021/12/02 02:04:10;;;;;;;43.37;40.60;;;7.20;99.90;;;;;;5083469;28;21115;-70
2021/12/02 02:07:00;;;;;;;43.27;40.67;;;7.20;99.90;;;;;;5080883;28;20242;-67
2021/12/02 02:09:50;;;;;;;43.87;41.17;;;7.30;99.90;;;;;;5081099;28;21095;-69
2021/12/02 02:12:39;;;;;;;44.80;42.20;;;7.30;99.90;;;;;;5080346;28;20230;-67
2021/12/02 02:15:28;;;;;;;44.23;41.47;;;7.30;99.90;;;;;;5083458;28;20246;-67
2021/12/02 02:18:20;;;;;;;43.07;40.50;;;7.30;99.90;;;;;;5078850;28;20262;-67
2021/12/02 02:21:14;;;;;;;44.67;42.07;;;7.30;99.90;;;;;;5076114;28;20785;-68
2021/12/02 02:24:03;;;;;;;43.73;41.00;;;7.30;99.90;;;;;;5078581;28;20219;-67
2021/12/02 02:26:52;;;;;;;43.13;40.47;;;7.30;99.90;;;;;;5082384;28;20227;-69
2021/12/02 02:29:40;;;;;;;44.37;41.70;;;7.30;99.90;;;;;;5080915;28;20254;-68
2021/12/02 02:32:29;;;;;;;44.03;41.43;;;7.20;99.90;;;;;;5078217;28;20238;-67
2021/12/02 02:35:17;;;;;;;45.00;42.30;;;7.20;99.90;;;;;;5079483;28;20219;-69
2021/12/02 02:38:11;;;;;;;43.90;41.30;;;7.20;99.90;;;;;;5080362;28;20312;-68
2021/12/02 02:41:02;;;;;;;44.00;41.23;;;7.10;99.90;;;;;;5081919;28;20737;-68
2021/12/02 02:43:52;;;;;;;44.20;41.50;;;7.10;99.90;;;;;;5078672;28;20238;-68
2021/12/02 02:46:46;;;;;;;44.17;41.47;;;7.10;99.90;;;;;;5080940;28;20226;-67
2021/12/02 02:49:34;;;;;;;45.07;42.37;;;7.00;99.90;;;;;;5081615;28;20238;-68
2021/12/02 02:52:23;;;;;;;44.63;41.83;;;7.10;99.90;;;;;;5079858;28;20238;-67
2021/12/02 02:55:17;;;;;;;43.63;40.93;;;7.10;99.90;;;;;;5078388;28;20235;-67
2021/12/02 02:58:16;;;;;;;44.33;41.57;;;7.10;99.90;;;;;;5082917;28;20208;-67
2021/12/02 03:01:10;;;;;;;45.60;42.80;;;7.10;99.90;;;;;;5082859;28;20219;-65
2021/12/02 03:04:05;;;;;;;44.43;41.70;;;7.20;99.90;;;;;;5079164;28;20219;-67
2021/12/02 03:06:57;;;;;;;45.70;43.00;;;7.20;99.90;;;;;;5082505;28;20247;-68
2021/12/02 03:10:03;;;;;;;45.13;42.23;;;7.20;99.90;;;;;;5083994;28;20584;-67
2021/12/02 03:12:58;;;;;;;44.63;42.03;;;7.10;99.90;;;;;;5079683;28;20215;-69
2021/12/02 03:18:55;;;;;;;45.57;42.87;;;7.10;99.90;;;;;;5081334;28;20702;-69
2021/12/02 03:21:44;;;;;;;45.27;42.43;;;7.10;99.90;;;;;;5082582;28;20713;-68
2021/12/02 03:24:32;;;;;;;44.30;41.60;;;7.10;99.90;;;;;;5080386;28;20212;-68
2021/12/02 03:27:21;;;;;;;44.20;41.47;;;7.00;99.90;;;;;;5077581;28;20224;-68
2021/12/02 03:30:11;;;;;;;45.70;42.73;;;7.00;99.90;;;;;;5080430;28;20730;-68
2021/12/02 03:33:00;;;;;;;44.20;41.50;;;7.00;99.90;;;;;;5082413;28;20729;-69
2021/12/02 03:35:49;;;;;;;45.77;42.87;;;7.00;99.90;;;;;;5078311;28;20218;-68
2021/12/02 03:38:50;;;;;;;45.43;42.63;;;7.00;99.90;;;;;;5082213;28;20236;-68
2021/12/02 03:41:40;;;;;;;44.23;40.97;;;7.00;99.90;;;;;;5079327;28;20215;-68
2021/12/02 03:44:29;;;;;;;43.33;40.83;;;6.90;99.90;;;;;;5080722;28;20234;-68
2021/12/02 03:47:19;;;;;;;44.20;41.60;;;7.00;99.90;;;;;;5081344;28;20232;-68
2021/12/02 03:50:08;;;;;;;43.57;40.90;;;6.90;99.90;;;;;;5080916;28;20298;-68
2021/12/02 03:52:57;;;;;;;44.83;42.07;;;7.00;99.90;;;;;;5084137;28;20608;-69
2021/12/02 03:55:46;;;;;;;45.13;42.50;;;7.00;99.90;;;;;;5084074;28;20707;-67
2021/12/02 03:58:35;;;;;;;44.47;41.87;;;6.90;99.90;;;;;;5087953;28;20250;-67
2021/12/02 04:01:24;;;;;;;45.17;42.47;;;7.00;99.90;;;;;;5079354;28;20817;-68
2021/12/02 04:04:15;;;;;;;43.30;40.90;;;6.90;99.90;;;;;;5085618;28;20224;-68
2021/12/02 04:07:05;;;;;;;44.70;42.00;;;6.90;99.90;;;;;;5103188;27;20228;-68
2021/12/02 04:09:55;;;;;;;45.13;42.50;;;6.90;99.90;;;;;;5082570;28;20216;-69
2021/12/02 04:12:50;;;;;;;41.10;38.70;;;6.90;99.90;;;;;;5085089;28;20218;-68
2021/12/02 04:15:40;;;;;;;44.43;41.90;;;6.90;99.90;;;;;;5081996;28;20218;-68
2021/12/02 04:18:29;;;;;;;43.10;40.37;;;6.90;99.90;;;;;;5084174;28;20800;-69
2021/12/02 04:21:19;;;;;;;43.70;41.10;;;6.90;99.90;;;;;;5082497;27;20326;-68
2021/12/02 04:24:07;;;;;;;43.27;40.77;;;6.90;99.90;;;;;;5081997;28;20227;-67
2021/12/02 04:26:57;;;;;;;43.37;40.87;;;6.90;99.90;;;;;;5084563;28;20220;-68
2021/12/02 04:29:46;;;;;;;43.40;40.80;;;7.00;99.90;;;;;;5093251;28;20241;-68
2021/12/02 04:32:34;;;;;;;41.03;38.73;;;7.00;99.90;;;;;;5085450;28;20219;-69
2021/12/02 04:35:23;;;;;;;42.37;39.87;;;7.10;99.90;;;;;;5075461;28;20216;-70
2021/12/02 04:38:17;;;;;;;42.53;40.23;;;7.00;99.90;;;;;;5083271;28;20220;-69
2021/12/02 04:41:06;;;;;;;41.47;39.17;;;7.10;99.90;;;;;;5080403;28;20365;-69
2021/12/02 04:43:55;;;;;;;42.60;40.37;;;7.10;99.90;;;;;;5084130;28;20328;-69
2021/12/02 04:46:44;;;;;;;42.00;39.77;;;7.20;99.90;;;;;;5083586;28;20336;-69
2021/12/02 04:49:33;;;;;;;42.60;40.30;;;7.20;99.90;;;;;;5082594;28;20265;-69
2021/12/02 04:52:22;;;;;;;42.60;40.17;;;7.20;99.90;;;;;;5079817;28;20218;-69
2021/12/02 04:55:12;;;;;;;43.27;40.83;;;7.30;99.90;;;;;;5091531;28;20299;-69
2021/12/02 04:58:00;;;;;;;42.40;40.10;;;7.20;99.90;;;;;;5083381;28;20231;-68
2021/12/02 05:00:50;;;;;;;42.63;40.13;;;7.20;99.90;;;;;;5082084;28;20307;-68
2021/12/02 05:03:38;;;;;;;42.07;39.77;;;7.20;99.90;;;;;;5081518;28;20223;-68
2021/12/02 05:06:27;;;;;;;42.97;40.60;;;7.20;99.90;;;;;;5079356;28;20220;-69
2021/12/02 05:09:16;;;;;;;42.53;40.27;;;7.10;99.90;;;;;;5084006;28;20219;-67
2021/12/02 05:12:07;;;;;;;41.97;39.77;;;7.10;99.90;;;;;;5084355;28;20226;-69
2021/12/02 05:14:56;;;;;;;41.13;38.97;;;7.20;99.90;;;;;;5082704;28;20223;-69
2021/12/02 05:17:44;;;;;;;42.60;40.30;;;7.20;99.90;;;;;;5081157;28;20892;-68
2021/12/02 05:20:33;;;;;;;41.93;39.73;;;7.20;99.90;;;;;;5084526;28;20349;-68
2021/12/02 05:23:22;;;;;;;41.37;39.07;;;7.20;99.90;;;;;;5082259;28;20334;-67
2021/12/02 05:26:11;;;;;;;42.53;40.23;;;7.20;99.90;;;;;;5083955;28;20239;-68
2021/12/02 05:29:01;;;;;;;42.50;40.30;;;7.20;99.90;;;;;;5081680;28;20224;-68
2021/12/02 05:31:50;;;;;;;41.53;39.33;;;7.20;99.90;;;;;;5080585;28;21287;-67
2021/12/02 05:34:38;;;;;;;42.73;40.43;;;7.20;99.90;;;;;;5083323;28;20223;-67
2021/12/02 05:37:27;;;;;;;42.97;40.57;;;7.20;99.90;;;;;;5084210;28;20236;-67
2021/12/02 05:40:16;;;;;;;40.90;38.70;;;7.20;99.90;;;;;;5082660;28;20219;-67
2021/12/02 05:43:05;;;;;;;40.33;38.13;;;7.20;99.90;;;;;;5086521;28;20219;-68
2021/12/02 05:45:55;;;;;;;43.03;40.63;;;7.20;99.90;;;;;;5082354;28;20325;-69
2021/12/02 05:48:43;;;;;;;42.50;40.20;;;7.30;99.90;;;;;;5081646;28;20234;-67
2021/12/02 05:51:32;;;;;;;43.10;40.80;;;7.30;99.90;;;;;;5079834;28;20223;-69
2021/12/02 05:54:21;;;;;;;43.13;40.83;;;7.30;99.90;;;;;;5082565;28;20332;-67
2021/12/02 05:57:10;;;;;;;41.67;39.13;;;7.30;99.90;;;;;;5081783;27;20249;-68
2021/12/02 05:59:58;;;;;;;42.57;40.27;;;7.30;99.90;;;;;;5110108;27;20734;-67
2021/12/02 06:02:49;;;;;;;42.17;39.70;;;7.30;99.90;;;;;;5079678;28;20215;-68
2021/12/02 06:05:37;;;;;;;41.07;38.90;;;7.30;99.90;;;;;;5076136;28;20216;-67
2021/12/02 06:08:26;;;;;;;42.10;39.60;;;7.30;99.90;;;;;;5079325;28;20277;-67
2021/12/02 06:11:15;;;;;;;42.37;40.07;;;7.30;99.90;;;;;;5078852;28;20219;-68
2021/12/02 06:14:04;;;;;;;41.50;39.20;;;7.30;99.90;;;;;;5082658;28;20746;-68
2021/12/02 06:16:52;;;;;;;42.47;40.17;;;7.30;99.90;;;;;;5074763;28;20288;-69
2021/12/02 06:19:43;;;;;;;40.07;37.83;;;7.30;99.90;;;;;;5068559;28;20231;-67
2021/12/02 06:22:31;;;;;;;41.10;38.80;;;7.20;99.90;;;;;;5081742;28;20230;-68
2021/12/02 06:28:27;;;;;;;40.27;38.07;;;7.10;99.90;;;;;;5078573;28;20302;-69
2021/12/02 06:31:15;;;;;;;42.77;40.07;;;7.10;99.90;;;;;;5080775;28;20212;-68
2021/12/02 06:34:06;;;;;;;42.70;40.30;;;7.20;99.90;;;;;;5081490;28;20222;-68
2021/12/02 06:36:56;;;;;;;42.40;40.00;;;7.20;99.90;;;;;;5080213;28;20208;-69
2021/12/02 06:39:45;;;;;;;41.63;39.23;;;7.20;99.90;;;;;;5079237;28;20231;-67
2021/12/02 06:42:34;;;;;;;41.13;38.73;;;7.10;99.90;;;;;;5083290;28;20233;-68
2021/12/02 06:45:23;;;;;;;40.03;37.90;;;7.20;99.90;;;;;;5083792;28;20229;-68
2021/12/02 06:48:12;;;;;;;41.87;39.37;;;7.20;99.90;;;;;;5090931;27;20308;-68
2021/12/02 06:51:00;;;;;;;42.97;40.50;;;7.30;99.90;;;;;;5080645;28;20216;-69
2021/12/02 06:53:52;;;;;;;41.43;38.93;;;7.30;99.90;;;;;;5077290;28;20227;-69
2021/12/02 06:57:00;;;;;;;43.03;40.60;;;7.30;99.90;;;;;;5079264;28;20218;-70
2021/12/02 06:59:49;;;;;;;43.10;40.80;;;7.30;99.90;;;;;;5079908;28;20222;-69
2021/12/02 07:02:39;;;;;;;42.27;39.87;;;7.40;99.90;;;;;;5082090;28;20218;-67
2021/12/02 07:05:29;;;;;;;43.13;40.63;;;7.30;99.90;;;;;;5081242;28;20231;-69
2021/12/02 07:08:19;;;;;;;42.27;39.97;;;7.40;99.90;;;;;;5076804;28;20219;-67
2021/12/02 07:11:10;;;;;;;41.83;39.53;;;7.30;99.90;;;;;;5099469;27;20214;-69
2021/12/02 07:14:03;;;;;;;40.87;38.47;;;7.20;99.90;;;;;;5091746;28;20231;-66
2021/12/02 07:16:51;;;;;;;40.87;38.57;;;7.20;99.90;;;;;;5079658;28;20219;-70
2021/12/02 07:19:40;;;;;;;41.40;39.00;;;7.10;99.90;;;;;;5084979;28;20466;-67
2021/12/02 07:22:29;;;;;;;39.73;37.60;;;7.10;99.90;;;;;;5087795;28;20831;-67
2021/12/02 07:25:18;;;;;;;41.13;38.90;;;7.00;99.90;;;;;;5084780;28;20220;-68
2021/12/02 07:28:09;;;;;;;41.40;39.00;;;7.00;99.90;;;;;;5082296;28;20227;-70
2021/12/02 07:30:59;;;;;;;41.77;39.53;;;7.00;99.90;;;;;;5085106;28;20223;-69
2021/12/02 07:33:48;;;;;;;41.23;38.30;;;6.90;99.90;;;;;;5078149;28;20254;-68
2021/12/02 07:36:38;;;;;;;40.10;37.77;;;6.90;99.90;;;;;;5077166;28;20245;-67
2021/12/02 07:39:27;;;;;;;39.13;36.83;;;6.90;99.90;;;;;;5082346;28;20360;-69
2021/12/02 07:42:18;;;;;;;39.00;36.73;;;6.80;99.90;;;;;;5082609;28;20674;-68
2021/12/02 07:45:09;;;;;;;40.10;37.80;;;6.80;99.90;;;;;;5081383;28;20680;-68
2021/12/02 07:47:58;;;;;;;39.77;37.60;;;6.90;99.90;;;;;;5085153;28;20734;-67
2021/12/02 07:50:47;;;;;;;39.50;37.40;;;6.80;99.90;;;;;;5085609;28;20282;-68
2021/12/02 07:53:36;;;;;;;39.13;37.03;;;6.80;99.90;;;;;;5082032;28;20215;-67
2021/12/02 07:56:29;;;;;;;39.67;37.27;;;6.80;99.90;;;;;;5084861;28;20215;-67
2021/12/02 07:59:18;;;;;;;38.20;36.20;;;6.80;99.90;;;;;;5081223;28;20306;-66
2021/12/02 08:02:15;;;;;;;39.43;37.10;;;6.80;99.90;;;;;;5081541;28;20247;-69
2021/12/02 08:05:04;;;;;;;41.63;38.90;;;6.80;99.90;;;;;;5080977;28;20211;-68
2021/12/02 08:07:53;;;;;;;38.20;35.87;;;6.80;99.90;;;;;;5083847;28;20714;-68
2021/12/02 08:10:42;;;;;;;39.33;37.03;;;6.80;99.90;;;;;;5083885;28;20231;-68
2021/12/02 08:13:31;;;;;;;38.77;36.43;;;6.80;99.90;;;;;;5083664;28;20226;-66
2021/12/02 08:16:20;;;;;;;40.80;38.50;;;6.80;99.90;;;;;;5084446;28;20230;-66
2021/12/02 08:19:10;;;;;;;40.83;38.57;;;6.80;99.90;;;;;;5106821;27;20238;-67
2021/12/02 08:21:59;;;;;;;41.50;39.27;;;6.70;99.90;;;;;;5083208;28;20216;-67
2021/12/02 08:24:47;;;;;;;39.33;37.13;;;6.70;99.90;;;;;;5083394;28;20223;-67
2021/12/02 08:27:36;;;;;;;37.77;35.67;;;6.80;99.90;;;;;;5084489;28;20230;-67
2021/12/02 08:30:26;;;;;;;37.63;35.53;;;6.80;99.90;;;;;;5086875;28;20223;-68
2021/12/02 08:33:18;;;;;;;39.97;37.67;;;6.80;99.90;;;;;;5085761;28;20987;-64
2021/12/02 08:36:09;;;;;;;41.20;38.90;;;6.80;99.90;;;;;;5096610;27;20714;-65
2021/12/02 08:39:02;;;;;;;42.47;40.17;;;6.80;99.90;;;;;;5088934;28;20245;-66
2021/12/02 08:41:53;;;;;;;40.27;38.07;;;6.90;99.90;;;;;;5087851;28;20223;-66
2021/12/02 08:44:41;;;;;;;41.47;38.90;;;6.90;99.90;;;;;;5095631;28;20234;-67
2021/12/02 08:47:30;;;;;;;41.13;38.70;;;6.90;99.90;;;;;;5080028;28;20477;-65
2021/12/02 08:50:21;;;;;;;41.80;39.40;;;6.90;99.90;;;;;;5082876;28;20235;-65
2021/12/02 08:53:11;;;;;;;38.90;36.73;;;7.00;99.90;;;;;;5083162;28;20233;-67
2021/12/02 08:56:00;;;;;;;40.30;37.80;;;7.00;99.90;;;;;;5082704;28;20233;-68
2021/12/02 08:58:48;;;;;;;38.43;36.33;;;6.90;99.90;;;;;;5085933;28;20223;-66
2021/12/02 09:01:37;;;;;;;41.67;39.27;;;7.00;99.90;;;;;;5081606;28;20220;-68
2021/12/02 09:04:27;;;;;;;40.90;38.70;;;7.00;99.90;;;;;;5081265;28;20568;-68
2021/12/02 09:07:16;;;;;;;41.00;38.60;;;7.00;99.90;;;;;;5078814;28;20688;-66
2021/12/02 09:10:08;;;;;;;41.00;38.80;;;7.10;99.90;;;;;;5082898;28;21035;-67
2021/12/02 09:12:57;;;;;;;37.47;35.47;;;7.00;99.90;;;;;;5080151;28;20234;-67
2021/12/02 09:15:46;;;;;;;39.57;37.07;;;7.10;99.90;;;;;;5096132;27;20702;-67
2021/12/02 09:18:35;;;;;;;40.63;38.33;;;7.10;99.90;;;;;;5084863;28;20247;-66
2021/12/02 09:21:25;;;;;;;40.23;37.93;;;7.00;99.90;;;;;;5047790;28;20300;-67
2021/12/02 09:24:18;;;;;;;40.30;38.10;;;7.10;99.90;;;;;;5049897;28;20303;-67
2021/12/02 09:27:09;;;;;;;41.03;38.67;;;7.10;99.90;;;;;;5061594;28;20220;-68
2021/12/02 09:30:01;;;;;;;40.80;38.40;;;7.10;99.90;;;;;;5047476;28;20240;-65
2021/12/02 09:32:50;;;;;;;41.00;38.53;;;7.20;99.90;;;;;;5049973;28;20338;-66
2021/12/02 09:35:39;;;;;;;40.67;38.37;;;7.20;99.90;;;;;;5066359;28;20307;-69
2021/12/02 09:38:28;;;;;;;39.73;37.63;;;7.20;99.90;;;;;;5060865;28;20736;-67
2021/12/02 09:41:16;;;;;;;40.80;38.40;;;7.20;99.90;;;;;;5060145;28;20299;-66
2021/12/02 09:44:07;;;;;;;41.93;39.70;;;7.30;99.90;;;;;;5064105;28;20638;-66
2021/12/02 09:46:57;;;;;;;39.73;37.50;;;7.30;99.90;;;;;;5064147;28;20307;-67
2021/12/02 09:49:46;;;;;;;38.87;36.77;;;7.30;99.90;;;;;;5058213;28;20232;-68
2021/12/02 09:52:37;;;;;;;40.30;37.90;;;7.30;99.90;;;;;;5060535;28;20734;-68
2021/12/02 09:55:33;;;;;;;42.03;39.50;;;7.30;99.90;;;;;;5063645;28;20216;-68
2021/12/02 09:58:24;;;;;;;40.90;38.60;;;7.20;99.90;;;;;;5050401;28;20227;-67
2021/12/02 10:01:17;;;;;;;40.93;38.43;;;7.20;99.90;;;;;;5062946;28;20219;-67
2021/12/02 10:04:09;;;;;;;40.60;38.10;;;7.10;99.90;;;;;;5059486;28;20254;-67
2021/12/02 10:07:15;;;;;;;40.60;38.37;;;7.10;99.90;;;;;;5060235;28;20225;-66
2021/12/02 10:10:11;;;;;;;40.73;38.53;;;7.10;99.90;;;;;;5064112;28;20729;-66
2021/12/02 10:13:21;;;;;;;41.67;39.40;;;7.10;99.90;;;;;;5051801;28;20216;-62
2021/12/02 10:16:20;;;;;;;41.80;39.30;;;7.20;99.90;;;;;;5062298;28;20232;-68
2021/12/02 10:19:10;;;;;;;42.13;39.83;;;7.20;99.90;;;;;;5063569;28;20238;-66
2021/12/02 10:22:04;;;;;;;39.63;37.43;;;7.20;99.90;;;;;;5089356;28;20211;-69
2021/12/02 10:24:53;;;;;;;41.20;38.60;;;7.10;99.90;;;;;;5080222;28;20927;-67
2021/12/02 10:28:03;;;;;;;40.63;38.23;;;7.10;99.90;;;;;;5083464;28;20215;-67
2021/12/02 10:30:55;;;;;;;40.33;38.00;;;7.10;99.90;;;;;;5079539;28;20215;-67
2021/12/02 10:33:49;;;;;;;42.67;40.27;;;7.10;99.90;;;;;;5080830;28;20620;-67
2021/12/02 10:36:42;;;;;;;40.87;38.37;;;7.10;99.90;;;;;;5080438;28;20215;-67
2021/12/02 10:39:31;;;;;;;42.30;40.00;;;7.10;99.90;;;;;;5104574;27;20695;-68
2021/12/02 10:42:22;;;;;;;39.97;37.67;;;7.20;99.90;;;;;;5082985;28;20700;-66
2021/12/02 10:45:22;;;;;;;41.03;38.63;;;7.20;99.90;;;;;;5085656;28;20665;-66
2021/12/02 10:48:10;;;;;;;42.50;39.80;;;7.20;99.90;;;;;;5086037;28;20251;-66
2021/12/02 10:51:01;;;;;;;42.17;39.60;;;7.30;99.90;;;;;;5080535;28;20228;-70
2021/12/02 10:54:00;;;;;;;41.23;38.73;;;7.30;99.90;;;;;;5081567;28;20230;-66
2021/12/02 10:56:52;;;;;;;40.97;38.67;;;7.40;99.90;;;;;;5080428;28;20219;-67
2021/12/02 10:59:46;;;;;;;38.90;36.67;;;7.50;99.90;;;;;;5082677;28;20780;-67
2021/12/02 11:02:38;;;;;;;41.33;38.97;;;7.50;99.90;;;;;;5081208;28;20234;-68
2021/12/02 11:05:31;;;;;;;40.30;38.20;;;7.50;99.90;;;;;;5082334;28;20219;-68
2021/12/02 11:08:23;;;;;;;40.60;37.93;;;7.50;99.90;;;;;;5074584;28;20219;-68
2021/12/02 11:11:23;;;;;;;42.00;39.50;;;7.50;99.90;;;;;;5083596;28;20284;-68
2021/12/02 11:14:15;;;;;;;47.20;44.10;;;7.40;99.90;;;;;;5080819;28;20227;-70
2021/12/02 11:17:09;;;;;;;40.20;37.90;;;7.40;99.90;;;;;;5082324;28;20311;-68
2021/12/02 11:19:59;;;;;;;38.63;36.33;;;7.30;99.90;;;;;;5084663;28;20268;-69
2021/12/02 11:22:53;;;;;;;40.80;38.47;;;7.40;99.90;;;;;;5082892;28;20219;-69
2021/12/02 11:25:57;;;;;;;40.33;37.93;;;7.30;99.90;;;;;;5081268;28;20227;-69
2021/12/02 11:28:46;;;;;;;39.60;37.37;;;7.40;99.90;;;;;;5082811;28;20233;-65
2021/12/02 11:31:43;;;;;;;40.97;38.83;;;7.40;99.90;;;;;;5081277;28;20343;-64
2021/12/02 11:34:32;;;;;;;39.03;36.83;;;7.30;99.90;;;;;;5094484;28;20318;-64
2021/12/02 11:37:21;;;;;;;40.23;38.00;;;7.20;99.90;;;;;;5081420;28;20231;-65
2021/12/02 11:40:14;;;;;;;40.13;37.77;;;7.20;99.90;;;;;;5080877;28;20215;-63
2021/12/02 11:43:05;;;;;;;41.70;39.27;;;7.10;99.90;;;;;;5082800;28;20262;-63
2021/12/02 11:45:55;;;;;;;39.70;37.50;;;7.10;99.90;;;;;;5084404;28;20284;-64
2021/12/02 11:48:45;;;;;;;40.73;38.33;;;7.20;99.90;;;;;;5086118;28;20239;-64
2021/12/02 11:51:34;;;;;;;41.13;38.77;;;7.20;99.90;;;;;;5079279;28;20766;-64
2021/12/02 11:54:22;;;;;;;41.60;39.10;;;7.30;99.90;;;;;;5079835;28;20219;-63
2021/12/02 11:57:11;;;;;;;41.00;38.70;;;7.40;99.90;;;;;;5082174;28;20283;-66
2021/12/02 12:00:02;;;;;;;40.53;38.30;;;7.40;99.90;;;;;;5079511;28;20237;-66
2021/12/02 12:03:02;;;;;;;39.57;37.37;;;7.50;99.90;;;;;;5080781;28;20226;-65
2021/12/02 12:05:56;;;;;;;40.57;38.37;;;7.60;99.90;;;;;;5086023;28;20220;-63
2021/12/02 12:08:49;;;;;;;41.37;39.03;;;7.60;99.90;;;;;;5085366;28;20428;-64
2021/12/02 12:11:45;;;;;;;40.60;38.40;;;7.50;99.70;;;;;;5085528;28;20219;-64
2021/12/02 12:14:36;;;;;;;41.07;38.87;;;7.40;99.90;;;;;;5096443;27;20235;-64
2021/12/02 12:17:40;;;;;;;39.93;37.60;;;7.40;99.90;;;;;;5085264;28;20222;-64
2021/12/02 12:20:52;;;;;;;40.90;38.60;;;7.30;99.90;;;;;;5081252;28;20227;-66
2021/12/02 12:23:47;;;;;;;41.57;39.00;;;7.30;99.90;;;;;;5083138;28;20227;-65
2021/12/02 12:26:37;;;;;;;40.97;38.53;;;7.40;99.90;;;;;;5083832;28;20265;-63
2021/12/02 12:29:26;;;;;;;40.67;38.43;;;7.40;99.90;;;;;;5083553;28;20341;-66
2021/12/02 12:32:52;;;;;;;33.92;31.75;;;7.40;99.90;;;;;;5080514;27;20570;-65
2021/12/02 12:35:59;;;;;;;39.30;37.00;;;7.50;98.70;;;;;;5083431;28;20223;-65
2021/12/02 12:38:48;;;;;;;38.93;36.73;;;7.40;99.50;;;;;;5083581;28;20540;-66
2021/12/02 12:41:37;;;;;;;38.83;36.63;;;7.40;96.30;;;;;;5084257;28;20222;-64
2021/12/02 12:44:47;;;;;;;41.33;38.87;;;7.40;97.40;;;;;;5083442;28;20220;-64
2021/12/02 12:47:47;;;;;;;40.10;37.90;;;7.30;96.90;;;;;;5094608;27;20324;-65
2021/12/02 12:50:39;;;;;;;39.43;37.10;;;7.10;96.10;;;;;;5083929;28;20234;-66
2021/12/02 12:53:36;;;;;;;40.63;37.90;;;7.10;97.40;;;;;;5085223;27;20220;-65
2021/12/02 12:56:31;;;;;;;40.20;38.00;;;7.10;97.10;;;;;;5080833;28;20224;-64
2021/12/02 12:59:20;;;;;;;38.30;36.10;;;7.00;97.10;;;;;;5081565;28;20334;-65
2021/12/02 13:02:09;;;;;;;35.40;33.40;;;6.90;96.10;;;;;;5081223;28;20215;-64
2021/12/02 13:05:00;;;;;;;39.23;36.93;;;6.90;95.30;;;;;;5112084;27;21879;-62
2021/12/02 13:08:18;;;;;;;39.33;37.00;;;6.80;98.00;;;;;;5081667;28;20242;-64
2021/12/02 13:11:13;;;;;;;39.00;36.50;;;6.80;97.40;;;;;;5082956;28;20231;-64
2021/12/02 13:14:04;;;;;;;39.73;37.43;;;6.80;98.60;;;;;;5081363;28;20273;-63
2021/12/02 13:16:53;;;;;;;38.37;36.17;;;6.70;98.80;;;;;;5084741;28;20227;-66
2021/12/02 13:19:59;;;;;;;40.20;37.80;;;6.70;98.30;;;;;;5079789;28;20258;-66
2021/12/02 13:23:08;;;;;;;37.50;35.27;;;6.70;99.50;;;;;;5081919;28;20230;-64
2021/12/02 13:26:03;;;;;;;38.90;36.80;;;6.70;98.20;;;;;;5080894;28;20899;-66
2021/12/02 13:28:55;;;;;;;39.23;37.13;;;6.70;99.60;;;;;;5084330;28;20249;-66
2021/12/02 13:31:48;;;;;;;36.73;34.73;;;6.90;96.00;;;;;;5081885;28;20254;-63
2021/12/02 13:34:38;;;;;;;38.17;36.07;;;6.80;99.20;;;;;;5078263;28;20316;-65
2021/12/02 13:37:26;;;;;;;40.03;37.73;;;6.80;97.90;;;;;;5081820;28;20231;-65
2021/12/02 13:40:15;;;;;;;41.47;38.80;;;6.70;98.70;;;;;;5078703;28;20227;-65
2021/12/02 13:43:07;;;;;;;40.03;37.67;;;6.80;96.50;;;;;;5081723;28;20216;-66
2021/12/02 13:46:11;;;;;;;41.77;39.20;;;6.70;98.80;;;;;;5077905;28;20894;-65
2021/12/02 13:49:02;;;;;;;40.93;38.43;;;6.60;98.00;;;;;;5079868;28;20226;-67
2021/12/02 13:55:06;;;;;;;41.57;38.70;;;6.60;98.60;;;;;;5079936;28;20399;-65
2021/12/02 13:58:04;;;;;;;41.43;38.93;;;6.50;97.80;;;;;;5082691;28;20943;-66
2021/12/02 14:00:58;;;;;;;41.60;39.30;;;6.50;96.50;;;;;;5093997;27;20251;-66
2021/12/02 14:03:48;;;;;;;41.33;38.93;;;6.50;98.00;;;;;;5081243;28;20314;-65
2021/12/02 14:06:36;;;;;;;40.50;37.70;;;6.40;98.90;;;;;;5078425;28;20667;-64
2021/12/02 14:09:26;;;;;;;39.87;37.57;;;6.30;99.40;;;;;;5076988;28;20312;-63
2021/12/02 14:12:16;;;;;;;38.97;36.60;;;6.30;99.30;;;;;;5080085;28;20274;-63
2021/12/02 14:15:08;;;;;;;40.30;37.90;;;6.30;99.90;;;;;;5088133;28;20715;-65
2021/12/02 14:18:01;;;;;;;39.70;37.40;;;6.30;99.90;;;;;;5082071;28;20789;-67
2021/12/02 14:20:52;;;;;;;41.07;38.50;;;6.20;99.90;;;;;;5080792;28;20226;-64
2021/12/02 14:23:44;;;;;;;40.57;38.07;;;6.20;99.90;;;;;;5089349;28;20284;-63
2021/12/02 14:26:32;;;;;;;42.47;39.57;;;6.20;99.90;;;;;;5081006;28;20319;-67
2021/12/02 14:29:24;;;;;;;40.27;37.73;;;6.20;99.90;;;;;;5081619;28;20257;-64
2021/12/02 14:32:14;;;;;;;40.37;38.07;;;6.20;99.90;;;;;;5081948;28;20261;-65
2021/12/02 14:35:11;;;;;;;40.60;38.40;;;6.20;99.90;;;;;;5084553;28;20302;-65
2021/12/02 14:37:59;;;;;;;38.70;36.50;;;6.10;99.90;;;;;;5078529;28;20300;-66
2021/12/02 14:40:53;;;;;;;42.20;38.87;;;6.00;99.90;;;;;;5081115;28;20223;-66
2021/12/02 14:43:50;;;;;;;41.20;38.33;;;6.00;99.90;;;;;;5088668;28;20220;-66
2021/12/02 14:46:40;;;;;;;40.17;37.77;;;6.00;99.90;;;;;;5105869;27;20211;-64
2021/12/02 14:49:33;;;;;;;40.73;38.03;;;6.00;99.90;;;;;;5076720;28;20238;-64
2021/12/02 14:52:24;;;;;;;42.57;39.47;;;6.00;99.90;;;;;;5081244;28;20521;-64